createdAt,value
2023-01-29T00:00:00.893Z,65.78
2023-01-29T00:02:29.101Z,65.70
2023-01-29T00:04:59.144Z,65.72
2023-01-29T00:07:28.849Z,65.88
2023-01-29T00:09:57.028Z,65.92
2023-01-29T00:12:25.236Z,65.70
2023-01-29T00:14:55.022Z,65.75
2023-01-29T00:17:23.500Z,65.92
2023-01-29T00:19:51.756Z,66.00
2023-01-29T00:22:20.129Z,65.92
2023-01-29T00:24:49.785Z,65.91
2023-01-29T00:27:17.967Z,66.16
2023-01-29T00:30:06.162Z,66.30
2023-01-29T00:32:34.401Z,66.23
2023-01-29T00:35:02.599Z,66.20
2023-01-29T00:37:30.943Z,66.27
2023-01-29T00:40:00.536Z,66.53
2023-01-29T00:42:46.365Z,66.73
2023-01-29T00:45:14.904Z,67.00
2023-01-29T00:47:43.053Z,66.81
2023-01-29T00:50:13.601Z,66.84
2023-01-29T00:52:42.263Z,66.98
2023-01-29T00:55:13.105Z,67.28
2023-01-29T00:57:41.395Z,67.32
2023-01-29T01:00:13.093Z,67.09
2023-01-29T01:02:59.076Z,67.28
2023-01-29T01:05:28.426Z,67.05
2023-01-29T01:07:59.855Z,67.18
2023-01-29T01:10:31.735Z,67.13
2023-01-29T01:13:02.033Z,67.38
2023-01-29T01:15:31.900Z,67.39
2023-01-29T01:18:02.032Z,67.09
2023-01-29T01:20:32.195Z,67.00
2023-01-29T01:23:00.431Z,67.45
2023-01-29T01:25:30.232Z,67.29
2023-01-29T01:28:03.316Z,67.64
2023-01-29T01:30:33.216Z,67.27
2023-01-29T01:33:02.044Z,67.31
2023-01-29T01:35:30.608Z,67.11
2023-01-29T01:37:58.839Z,67.37
2023-01-29T01:40:29.214Z,67.44
2023-01-29T01:42:59.617Z,67.41
2023-01-29T01:45:30.340Z,67.47
2023-01-29T01:48:03.196Z,67.56
2023-01-29T01:50:35.533Z,67.46
2023-01-29T01:53:08.592Z,67.72
2023-01-29T01:55:43.217Z,67.86
2023-01-29T01:58:14.213Z,67.71
2023-01-29T02:00:44.139Z,67.95
2023-01-29T02:03:31.622Z,67.92
2023-01-29T02:06:18.887Z,67.88
2023-01-29T02:09:11.584Z,68.02
2023-01-29T02:11:41.565Z,68.21
2023-01-29T02:14:09.982Z,68.38
2023-01-29T02:16:38.606Z,68.31
2023-01-29T02:19:16.445Z,68.02
2023-01-29T02:22:07.155Z,68.47
2023-01-29T02:24:59.677Z,68.54
2023-01-29T02:27:42.722Z,68.50
2023-01-29T02:30:18.620Z,68.81
2023-01-29T02:32:58.733Z,68.79
2023-01-29T02:35:33.358Z,68.67
2023-01-29T02:38:14.211Z,68.70
2023-01-29T02:40:46.746Z,69.05
2023-01-29T02:43:21.158Z,69.06
2023-01-29T02:45:56.719Z,69.10
2023-01-29T02:48:28.964Z,69.19
2023-01-29T02:51:01.807Z,69.52
2023-01-29T02:53:37.403Z,69.41
2023-01-29T02:56:13.821Z,69.59
2023-01-29T02:58:45.400Z,69.70
2023-01-29T03:01:19.630Z,69.55
2023-01-29T03:03:54.278Z,69.69
2023-01-29T03:06:26.400Z,69.59
2023-01-29T03:08:59.035Z,69.60
2023-01-29T03:11:31.326Z,69.74
2023-01-29T03:14:06.133Z,69.91
2023-01-29T03:16:41.298Z,70.20
2023-01-29T03:19:13.371Z,70.10
2023-01-29T03:21:59.449Z,69.95
2023-01-29T03:24:55.004Z,70.18
2023-01-29T03:27:45.273Z,70.27
2023-01-29T03:30:35.053Z,70.28
2023-01-29T03:33:22.146Z,70.33
2023-01-29T03:35:58.651Z,70.08
2023-01-29T03:38:29.749Z,70.15
2023-01-29T03:41:01.115Z,70.32
2023-01-29T03:43:35.328Z,70.22
2023-01-29T03:46:09.269Z,70.32
2023-01-29T03:48:46.027Z,70.12
2023-01-29T03:51:24.913Z,70.16
2023-01-29T03:54:00.992Z,70.31
2023-01-29T03:56:40.761Z,70.52
2023-01-29T03:59:20.952Z,70.67
2023-01-29T04:02:22.061Z,70.56
2023-01-29T04:04:56.327Z,70.54
2023-01-29T04:07:25.658Z,70.91
2023-01-29T04:10:07.940Z,70.76
2023-01-29T04:12:42.666Z,70.47
2023-01-29T04:15:15.883Z,70.75
2023-01-29T04:17:50.215Z,70.74
2023-01-29T04:20:40.122Z,71.25
2023-01-29T04:23:08.893Z,70.99
2023-01-29T04:25:46.074Z,71.21
2023-01-29T04:28:23.739Z,70.98
2023-01-29T04:30:58.415Z,71.01
2023-01-29T04:33:36.280Z,70.84
2023-01-29T04:36:17.541Z,70.88
2023-01-29T04:38:56.207Z,70.96
2023-01-29T04:41:31.040Z,71.17
2023-01-29T04:44:05.027Z,70.92
2023-01-29T04:46:42.855Z,70.73
2023-01-29T04:49:20.013Z,70.47
2023-01-29T04:52:00.857Z,70.43
2023-01-29T04:54:43.320Z,70.59
2023-01-29T04:57:17.391Z,70.86
2023-01-29T04:59:52.482Z,70.73
2023-01-29T05:02:23.241Z,71.00
2023-01-29T05:04:52.009Z,71.06
2023-01-29T05:07:24.684Z,70.99
2023-01-29T05:09:53.149Z,70.78
2023-01-29T05:12:21.449Z,70.93
2023-01-29T05:14:51.982Z,71.13
2023-01-29T05:17:21.834Z,71.30
2023-01-29T05:19:50.437Z,70.77
2023-01-29T05:22:22.870Z,70.79
2023-01-29T05:24:51.432Z,70.70
2023-01-29T05:27:39.875Z,70.61
2023-01-29T05:30:10.439Z,71.07
2023-01-29T05:32:39.834Z,71.13
2023-01-29T05:35:08.703Z,71.19
2023-01-29T05:37:38.542Z,71.03
2023-01-29T05:40:08.930Z,70.97
2023-01-29T05:42:37.386Z,70.97
2023-01-29T05:45:06.275Z,70.75
2023-01-29T05:47:34.481Z,70.72
2023-01-29T05:50:02.629Z,70.87
2023-01-29T05:52:30.895Z,70.99
2023-01-29T05:55:00.465Z,71.03
2023-01-29T05:57:28.704Z,71.03
2023-01-29T05:59:56.918Z,71.08
2023-01-29T06:02:25.112Z,70.67
2023-01-29T06:04:53.591Z,70.55
2023-01-29T06:07:21.796Z,70.92
2023-01-29T06:09:50.037Z,70.71
2023-01-29T06:12:19.644Z,71.04
2023-01-29T06:14:47.879Z,71.16
2023-01-29T06:17:16.072Z,71.02
2023-01-29T06:19:44.299Z,71.09
2023-01-29T06:22:12.551Z,71.22
2023-01-29T06:24:40.759Z,71.21
2023-01-29T06:27:08.953Z,70.59
2023-01-29T06:29:38.572Z,70.94
2023-01-29T06:32:07.101Z,70.95
2023-01-29T06:34:35.465Z,71.05
2023-01-29T06:37:04.032Z,70.99
2023-01-29T06:39:32.273Z,70.67
2023-01-29T06:42:00.606Z,71.12
2023-01-29T06:44:28.792Z,70.72
2023-01-29T06:46:59.142Z,70.87
2023-01-29T06:49:27.458Z,71.32
2023-01-29T06:51:55.713Z,71.32
2023-01-29T06:54:24.011Z,71.45
2023-01-29T06:56:53.033Z,71.33
2023-01-29T06:59:21.316Z,71.39
2023-01-29T07:01:49.596Z,71.04
2023-01-29T07:04:19.305Z,71.29
2023-01-29T07:06:47.507Z,70.88
2023-01-29T07:09:16.137Z,71.22
2023-01-29T07:11:44.687Z,71.31
2023-01-29T07:14:12.967Z,70.76
2023-01-29T07:16:41.202Z,71.10
2023-01-29T07:19:09.474Z,71.32
2023-01-29T07:21:39.405Z,71.30
2023-01-29T07:24:08.212Z,71.33
2023-01-29T07:26:36.621Z,71.28
2023-01-29T07:29:06.325Z,71.28
2023-01-29T07:31:34.851Z,70.97
2023-01-29T07:34:03.089Z,71.11
2023-01-29T07:36:31.445Z,70.98
2023-01-29T07:39:01.147Z,71.10
2023-01-29T07:41:29.706Z,70.93
2023-01-29T07:44:01.026Z,70.79
2023-01-29T07:46:29.217Z,71.25
2023-01-29T07:48:57.417Z,71.11
2023-01-29T07:51:25.637Z,70.94
2023-01-29T07:53:53.888Z,71.20
2023-01-29T07:56:23.506Z,71.52
2023-01-29T07:58:51.748Z,71.29
2023-01-29T08:01:20.022Z,71.67
2023-01-29T08:03:50.552Z,71.43
2023-01-29T08:06:19.479Z,71.34
2023-01-29T08:08:47.688Z,71.67
2023-01-29T08:11:15.976Z,71.52
2023-01-29T08:13:46.775Z,71.44
2023-01-29T08:16:15.427Z,71.60
2023-01-29T08:18:47.713Z,71.60
2023-01-29T08:21:16.576Z,72.15
2023-01-29T08:23:44.762Z,71.74
2023-01-29T08:26:13.045Z,71.85
2023-01-29T08:28:41.273Z,72.19
2023-01-29T08:31:16.483Z,71.97
2023-01-29T08:33:44.726Z,71.70
2023-01-29T08:36:13.048Z,71.75
2023-01-29T08:38:41.383Z,71.66
2023-01-29T08:41:09.737Z,71.54
2023-01-29T08:43:38.694Z,71.77
2023-01-29T08:46:08.022Z,71.74
2023-01-29T08:48:37.813Z,71.52
2023-01-29T08:51:06.225Z,71.56
2023-01-29T08:53:34.509Z,71.39
2023-01-29T08:56:02.751Z,71.29
2023-01-29T08:58:31.015Z,71.18
2023-01-29T09:01:07.084Z,71.29
2023-01-29T09:03:35.389Z,71.31
2023-01-29T09:06:05.515Z,70.90
2023-01-29T09:08:34.116Z,71.16
2023-01-29T09:11:02.317Z,71.01
2023-01-29T09:13:30.683Z,70.87
2023-01-29T09:16:01.401Z,71.00
2023-01-29T09:18:30.615Z,70.90
2023-01-29T09:20:59.167Z,71.01
2023-01-29T09:23:28.813Z,70.89
2023-01-29T09:25:57.447Z,70.73
2023-01-29T09:28:25.837Z,70.72
2023-01-29T09:30:54.132Z,70.65
2023-01-29T09:33:22.383Z,70.62
2023-01-29T09:35:50.611Z,70.46
2023-01-29T09:38:18.813Z,70.40
2023-01-29T09:40:59.738Z,70.73
2023-01-29T09:43:40.577Z,70.47
2023-01-29T09:46:17.786Z,70.64
2023-01-29T09:48:48.007Z,70.37
2023-01-29T09:51:27.112Z,70.40
2023-01-29T09:54:05.137Z,70.65
2023-01-29T09:56:35.288Z,70.47
2023-01-29T09:59:03.599Z,70.82
2023-01-29T10:01:38.265Z,70.69
2023-01-29T10:04:24.030Z,70.51
2023-01-29T10:07:09.196Z,70.52
2023-01-29T10:10:02.988Z,70.72
2023-01-29T10:12:45.566Z,70.53
2023-01-29T10:15:24.675Z,70.47
2023-01-29T10:18:06.599Z,70.47
2023-01-29T10:20:59.393Z,70.33
2023-01-29T10:23:31.526Z,70.53
2023-01-29T10:26:01.337Z,70.52
2023-01-29T10:28:35.127Z,70.51
2023-01-29T10:31:09.676Z,70.72
2023-01-29T10:34:00.985Z,70.50
2023-01-29T10:36:35.466Z,70.57
2023-01-29T10:39:03.854Z,70.87
2023-01-29T10:42:14.549Z,70.62
2023-01-29T10:44:57.919Z,70.52
2023-01-29T10:47:59.835Z,70.31
2023-01-29T10:50:50.119Z,70.17
2023-01-29T10:53:29.807Z,70.38
2023-01-29T10:56:14.082Z,70.50
2023-01-29T10:58:52.866Z,70.41
2023-01-29T11:01:22.723Z,70.61
2023-01-29T11:03:58.885Z,70.53
2023-01-29T11:06:31.607Z,70.53
2023-01-29T11:09:09.002Z,70.48
2023-01-29T11:11:42.825Z,70.59
2023-01-29T11:14:15.884Z,70.58
2023-01-29T11:16:48.575Z,70.07
2023-01-29T11:19:17.586Z,70.16
2023-01-29T11:21:54.323Z,70.17
2023-01-29T11:24:22.573Z,70.18
2023-01-29T11:26:53.124Z,70.64
2023-01-29T11:29:46.584Z,70.19
2023-01-29T11:32:27.024Z,70.26
2023-01-29T11:35:00.961Z,70.32
2023-01-29T11:37:40.614Z,70.30
2023-01-29T11:40:44.255Z,70.37
2023-01-29T11:43:21.722Z,69.95
2023-01-29T11:45:52.587Z,70.64
2023-01-29T11:48:24.632Z,70.31
2023-01-29T11:50:54.886Z,69.93
2023-01-29T11:53:35.879Z,69.84
2023-01-29T11:56:08.483Z,70.18
2023-01-29T11:58:37.021Z,69.98
2023-01-29T12:01:06.686Z,70.28
2023-01-29T12:03:41.566Z,70.00
2023-01-29T12:06:19.362Z,70.03
2023-01-29T12:08:57.019Z,69.99
2023-01-29T12:11:31.868Z,70.08
2023-01-29T12:14:02.134Z,69.47
2023-01-29T12:16:34.729Z,69.50
2023-01-29T12:19:12.899Z,69.70
2023-01-29T12:21:48.331Z,69.63
2023-01-29T12:24:32.019Z,69.51
2023-01-29T12:27:08.844Z,69.46
2023-01-29T12:29:44.985Z,69.33
2023-01-29T12:32:27.580Z,69.50
2023-01-29T12:35:02.952Z,69.52
2023-01-29T12:37:41.144Z,69.20
2023-01-29T12:40:15.824Z,69.28
2023-01-29T12:42:48.936Z,69.19
2023-01-29T12:45:19.969Z,69.54
2023-01-29T12:47:51.389Z,69.66
2023-01-29T12:50:23.334Z,69.60
2023-01-29T12:52:56.127Z,69.88
2023-01-29T12:55:29.423Z,69.74
2023-01-29T12:58:00.010Z,69.98
2023-01-29T13:00:31.363Z,70.22
2023-01-29T13:03:05.520Z,69.77
2023-01-29T13:05:45.076Z,70.09
2023-01-29T13:08:20.032Z,70.46
2023-01-29T13:10:52.299Z,70.67
2023-01-29T13:13:28.863Z,70.65
2023-01-29T13:16:00.180Z,70.46
2023-01-29T13:18:44.880Z,70.35
2023-01-29T13:21:18.691Z,70.44
2023-01-29T13:23:49.707Z,70.49
2023-01-29T13:26:20.303Z,70.23
2023-01-29T13:28:49.424Z,70.59
2023-01-29T13:31:29.741Z,70.76
2023-01-29T13:34:11.156Z,70.88
2023-01-29T13:36:44.563Z,71.19
2023-01-29T13:39:23.980Z,70.92
2023-01-29T13:41:53.540Z,71.01
2023-01-29T13:44:25.962Z,71.01
2023-01-29T13:46:59.060Z,70.95
2023-01-29T13:49:36.198Z,71.19
2023-01-29T13:52:27.212Z,71.31
2023-01-29T13:54:58.664Z,71.04
2023-01-29T13:57:50.383Z,71.31
2023-01-29T14:01:01.659Z,71.01
2023-01-29T14:04:04.602Z,71.30
2023-01-29T14:06:50.885Z,71.76
2023-01-29T14:10:04.115Z,71.61
2023-01-29T14:12:52.810Z,71.67
2023-01-29T14:15:41.951Z,71.52
2023-01-29T14:18:21.447Z,71.73
2023-01-29T14:21:01.480Z,71.74
2023-01-29T14:23:40.513Z,71.73
2023-01-29T14:26:22.955Z,71.62
2023-01-29T14:29:02.434Z,71.79
2023-01-29T14:31:41.765Z,72.20
2023-01-29T14:34:20.247Z,72.66
2023-01-29T14:36:55.375Z,72.56
2023-01-29T14:39:30.970Z,72.33
2023-01-29T14:42:01.149Z,72.59
2023-01-29T14:44:59.048Z,72.64
2023-01-29T14:47:56.543Z,72.28
2023-01-29T14:50:47.077Z,72.94
2023-01-29T14:53:21.151Z,72.65
2023-01-29T14:55:55.408Z,72.81
2023-01-29T14:58:30.355Z,72.81
2023-01-29T15:01:01.302Z,72.85
2023-01-29T15:03:38.672Z,72.88
2023-01-29T15:06:09.115Z,73.00
2023-01-29T15:08:45.146Z,72.88
2023-01-29T15:11:37.552Z,72.98
2023-01-29T15:14:15.143Z,73.11
2023-01-29T15:16:58.232Z,73.03
2023-01-29T15:19:30.992Z,73.26
2023-01-29T15:22:08.144Z,73.03
2023-01-29T15:24:38.508Z,73.00
2023-01-29T15:27:11.357Z,73.05
2023-01-29T15:29:40.750Z,73.31
2023-01-29T15:32:16.373Z,73.08
2023-01-29T15:34:45.562Z,72.98
2023-01-29T15:37:28.158Z,72.75
2023-01-29T15:39:56.682Z,73.18
2023-01-29T15:42:25.983Z,73.16
2023-01-29T15:44:55.672Z,73.19
2023-01-29T15:47:33.865Z,72.85
2023-01-29T15:50:02.187Z,73.21
2023-01-29T15:52:35.368Z,72.91
2023-01-29T15:55:07.749Z,73.33
2023-01-29T15:57:41.317Z,72.93
2023-01-29T16:00:23.160Z,73.42
2023-01-29T16:02:54.926Z,73.36
2023-01-29T16:05:26.874Z,73.25
2023-01-29T16:07:56.783Z,73.53
2023-01-29T16:10:27.795Z,73.63
2023-01-29T16:12:56.746Z,73.38
2023-01-29T16:15:32.341Z,73.41
2023-01-29T16:18:04.734Z,73.74
2023-01-29T16:20:45.169Z,73.86
2023-01-29T16:23:20.310Z,73.80
2023-01-29T16:25:50.536Z,73.93
2023-01-29T16:28:19.752Z,73.92
2023-01-29T16:30:48.165Z,74.00
2023-01-29T16:33:19.891Z,74.10
2023-01-29T16:35:52.974Z,74.26
2023-01-29T16:38:28.826Z,74.03
2023-01-29T16:41:08.704Z,74.10
2023-01-29T16:43:58.818Z,74.14
2023-01-29T16:46:33.368Z,74.49
2023-01-29T16:49:03.596Z,74.37
2023-01-29T16:51:38.642Z,74.62
2023-01-29T16:54:12.234Z,74.55
2023-01-29T16:56:41.289Z,74.52
2023-01-29T16:59:18.921Z,74.60
2023-01-29T17:01:47.834Z,74.49
2023-01-29T17:04:19.968Z,74.40
2023-01-29T17:06:50.159Z,74.73
2023-01-29T17:09:25.549Z,74.54
2023-01-29T17:11:57.707Z,74.85
2023-01-29T17:14:26.911Z,74.87
2023-01-29T17:16:57.256Z,74.77
2023-01-29T17:19:27.123Z,74.78
2023-01-29T17:21:55.760Z,75.13
2023-01-29T17:24:24.349Z,75.02
2023-01-29T17:26:53.921Z,75.11
2023-01-29T17:29:28.082Z,75.05
2023-01-29T17:31:56.737Z,75.17
2023-01-29T17:34:27.357Z,75.13
2023-01-29T17:36:57.350Z,75.19
2023-01-29T17:39:25.737Z,75.04
2023-01-29T17:41:55.652Z,75.15
2023-01-29T17:44:26.248Z,75.08
2023-01-29T17:46:54.865Z,75.36
2023-01-29T17:49:27.209Z,75.31
2023-01-29T17:51:57.456Z,75.67
2023-01-29T17:54:26.813Z,75.55
2023-01-29T17:56:55.428Z,75.47
2023-01-29T17:59:25.831Z,75.28
2023-01-29T18:01:54.523Z,75.47
2023-01-29T18:04:23.058Z,75.54
2023-01-29T18:06:54.429Z,75.60
2023-01-29T18:09:23.436Z,75.65
2023-01-29T18:11:53.504Z,75.99
2023-01-29T18:14:21.739Z,75.64
2023-01-29T18:16:50.055Z,75.77
2023-01-29T18:19:22.265Z,76.16
2023-01-29T18:21:50.950Z,75.96
2023-01-29T18:24:23.698Z,76.10
2023-01-29T18:26:52.506Z,76.54
2023-01-29T18:29:20.733Z,76.25
2023-01-29T18:31:49.984Z,76.37
2023-01-29T18:34:18.265Z,76.42
2023-01-29T18:36:47.914Z,76.54
2023-01-29T18:39:16.449Z,76.94
2023-01-29T18:41:46.081Z,76.54
2023-01-29T18:44:14.322Z,76.65
2023-01-29T18:46:42.574Z,76.57
2023-01-29T18:49:11.093Z,76.71
2023-01-29T18:51:39.324Z,76.78
2023-01-29T18:54:07.557Z,76.72
2023-01-29T18:56:36.081Z,76.86
2023-01-29T18:59:12.109Z,76.79
2023-01-29T19:01:41.433Z,76.97
2023-01-29T19:04:09.664Z,76.87
2023-01-29T19:06:38.070Z,77.02
2023-01-29T19:09:06.391Z,77.03
2023-01-29T19:11:34.591Z,77.10
2023-01-29T19:14:02.819Z,77.36
2023-01-29T19:16:32.422Z,77.58
2023-01-29T19:19:00.654Z,77.87
2023-01-29T19:21:30.461Z,77.75
2023-01-29T19:23:58.707Z,77.98
2023-01-29T19:26:27.011Z,77.95
2023-01-29T19:28:55.325Z,78.14
2023-01-29T19:31:23.552Z,78.07
2023-01-29T19:33:53.218Z,78.22
2023-01-29T19:36:21.559Z,78.65
2023-01-29T19:38:50.269Z,78.84
2023-01-29T19:41:18.609Z,78.44
2023-01-29T19:43:48.378Z,78.70
2023-01-29T19:46:17.490Z,78.83
2023-01-29T19:48:47.178Z,78.49
2023-01-29T19:51:16.859Z,78.50
2023-01-29T19:53:45.019Z,78.54
2023-01-29T19:56:15.629Z,78.60
2023-01-29T19:58:44.824Z,78.33
2023-01-29T20:01:16.667Z,78.59
2023-01-29T20:03:46.663Z,78.50
2023-01-29T20:06:18.054Z,78.39
2023-01-29T20:08:46.844Z,78.68
2023-01-29T20:11:15.728Z,78.44
2023-01-29T20:13:44.676Z,78.47
2023-01-29T20:16:13.037Z,78.37
2023-01-29T20:18:41.397Z,78.44
2023-01-29T20:21:11.480Z,78.51
2023-01-29T20:23:41.585Z,78.64
2023-01-29T20:26:12.581Z,78.40
2023-01-29T20:28:41.304Z,78.42
2023-01-29T20:31:10.954Z,78.78
2023-01-29T20:33:39.826Z,78.36
2023-01-29T20:36:11.328Z,78.36
2023-01-29T20:38:39.614Z,78.81
2023-01-29T20:41:11.985Z,78.89
2023-01-29T20:43:40.757Z,78.98
2023-01-29T20:46:09.240Z,78.91
2023-01-29T20:48:38.765Z,78.89
2023-01-29T20:51:09.461Z,78.98
2023-01-29T20:53:38.288Z,79.06
2023-01-29T20:56:09.039Z,78.99
2023-01-29T20:58:41.349Z,78.78
2023-01-29T21:01:10.517Z,78.75
2023-01-29T21:03:39.799Z,79.01
2023-01-29T21:06:08.605Z,78.99
2023-01-29T21:08:37.244Z,79.43
2023-01-29T21:11:06.974Z,79.68
2023-01-29T21:13:36.926Z,79.32
2023-01-29T21:16:05.889Z,79.57
2023-01-29T21:18:34.111Z,79.38
2023-01-29T21:21:02.406Z,79.31
2023-01-29T21:23:30.835Z,79.47
2023-01-29T21:26:03.322Z,79.58
2023-01-29T21:28:31.528Z,80.05
2023-01-29T21:31:10.163Z,79.69
2023-01-29T21:33:39.521Z,79.98
2023-01-29T21:36:10.172Z,79.97
2023-01-29T21:38:38.787Z,79.80
2023-01-29T21:41:08.996Z,79.86
2023-01-29T21:43:36.767Z,80.23
2023-01-29T21:46:11.858Z,80.25
2023-01-29T21:48:41.183Z,80.36
2023-01-29T21:51:09.442Z,81.51
2023-01-29T21:53:37.849Z,81.69
2023-01-29T21:56:07.309Z,81.36
2023-01-29T21:58:35.756Z,81.66
2023-01-29T22:01:36.676Z,81.68
2023-01-29T22:03:53.660Z,81.68
2023-01-29T22:06:22.838Z,81.86
2023-01-29T22:08:51.172Z,82.67
2023-01-29T22:11:19.723Z,82.44
2023-01-29T22:13:48.125Z,82.94
2023-01-29T22:16:16.365Z,82.80
2023-01-29T22:18:44.625Z,82.86
2023-01-29T22:21:14.273Z,83.30
2023-01-29T22:23:42.850Z,83.56
2023-01-29T22:26:12.286Z,83.15
2023-01-29T22:28:40.614Z,83.41
2023-01-29T22:31:08.835Z,83.74
2023-01-29T22:33:37.202Z,83.23
2023-01-29T22:36:05.951Z,83.45
2023-01-29T22:38:35.606Z,83.68
2023-01-29T22:41:04.776Z,83.57
2023-01-29T22:43:32.974Z,83.76
2023-01-29T22:46:01.214Z,83.86
2023-01-29T22:48:30.745Z,83.83
2023-01-29T22:51:10.146Z,83.45
2023-01-29T22:53:41.484Z,83.61
2023-01-29T22:56:10.391Z,83.48
2023-01-29T22:58:39.043Z,83.63
2023-01-29T23:01:07.336Z,83.27
2023-01-29T23:03:35.761Z,83.36
2023-01-29T23:06:04.845Z,83.13
2023-01-29T23:08:34.050Z,83.19
2023-01-29T23:11:14.546Z,83.42
2023-01-29T23:13:43.900Z,82.95
2023-01-29T23:16:12.237Z,83.13
2023-01-29T23:18:40.520Z,83.12
2023-01-29T23:21:09.703Z,83.15
2023-01-29T23:23:38.779Z,82.87
2023-01-29T23:26:28.775Z,82.91
2023-01-29T23:28:57.063Z,83.04
2023-01-29T23:31:25.789Z,82.93
2023-01-29T23:33:54.078Z,83.28
2023-01-29T23:36:22.532Z,83.18
2023-01-29T23:38:50.754Z,83.45
2023-01-29T23:41:20.322Z,83.73
2023-01-29T23:43:48.638Z,84.03
2023-01-29T23:46:16.859Z,84.44
2023-01-29T23:48:45.169Z,84.23
2023-01-29T23:51:13.387Z,84.11
2023-01-29T23:53:41.922Z,84.06
2023-01-29T23:56:12.372Z,83.39
2023-01-29T23:58:41.948Z,83.49
